Hauptseite
METAR-TAF:

METAR-TAF

Flughäfen :

Flughafen Salzburg

Salzburg, Österreich

Breite: 47-48N, Länge: 013-00E, Höhe: 430 m

Beobachtung

Neuester Wetterbericht von vor 26 Minuten, um 17:20 UTC
Wind 2 kt aus Nord/Nordost
Temperatur 6°C
Luftfeuchtigkeit 75%
Luftdruck 1003 hPa
Sichtweite 10 km oder mehr
keine Wolken unter 1500 m und keine Kumulonimbus oder Gewitterwolken

METAR: LOWS 251720Z 03002KT CAVOK 06/02 Q1003 NOSIG

Zeit: 18:46 (17:46 UTC)

Prognose

Neuester Wetterbericht von vor 31 Minuten, um 17:15 UTC
Gültige Prognose vom 25 um 18 UTC bis 26 um 18 UTC
Wind 7 kt aus Süd/Südost
Sichtweite 10 km oder mehr
keine Wolken unter 1500 m und keine Kumulonimbus oder Gewitterwolken
Zeitweise
vom 26 um 10 UTC bis 26 um 18 UTC
Wind 5 kt aus Nord/Nordwest

TAF: LOWS 251715Z 2518/2618 15007KT CAVOK TX13/2614Z TN02/2606Z TEMPO 2610/2618 34005KT

Wetterbeobachtungen und Prognosen von mehr als 4000 Flughäfen (METAR und TAF Bericht).

Die verfügbaren Stationen werden durch gelbe und rote Markierungen auf der Karte dargestellt.

Führen Sie die Maus auf sie, um den Namen der Station zu sehen.

Darauf klicken, um die Beobachtung von Wetterbeobachtungen und Prognosen zu sehen.

Um die Karte zu ändern : klicken Sie auf den grünen Tasten mit einem schwarzen Kreuz Zum Vergrößern, auf den grünen Button mit einem Gedankenstrich zu verkleinern, oder auf die grünen Pfeile für benachbarte Karten.


METAR-TAF: